createdAt,value
2023-05-25T00:02:16.833Z,29.50
2023-05-25T00:04:48.476Z,29.40
2023-05-25T00:07:16.325Z,29.40
2023-05-25T00:09:44.404Z,29.40
2023-05-25T00:12:12.325Z,29.40
2023-05-25T00:14:39.993Z,29.40
2023-05-25T00:17:10.920Z,29.40
2023-05-25T00:19:42.582Z,29.40
2023-05-25T00:22:10.642Z,29.40
2023-05-25T00:24:40.966Z,29.40
2023-05-25T00:27:08.740Z,29.40
2023-05-25T00:29:37.001Z,29.40
2023-05-25T00:32:05.818Z,29.40
2023-05-25T00:34:36.231Z,29.40
2023-05-25T00:37:04.300Z,29.40
2023-05-25T00:39:32.010Z,29.40
2023-05-25T00:42:00.802Z,29.40
2023-05-25T00:44:28.908Z,29.40
2023-05-25T00:46:56.756Z,29.40
2023-05-25T00:49:24.654Z,29.40
2023-05-25T00:51:54.264Z,29.30
2023-05-25T00:54:22.480Z,29.30
2023-05-25T00:56:52.907Z,29.30
2023-05-25T00:59:29.454Z,29.30
2023-05-25T01:01:58.561Z,29.30
2023-05-25T01:04:29.809Z,29.30
2023-05-25T01:07:01.180Z,29.30
2023-05-25T01:09:30.807Z,29.30
2023-05-25T01:12:00.220Z,29.30
2023-05-25T01:14:29.283Z,29.30
2023-05-25T01:16:58.974Z,29.30
2023-05-25T01:19:26.720Z,29.30
2023-05-25T01:22:01.310Z,29.30
2023-05-25T01:24:34.464Z,29.30
2023-05-25T01:27:06.699Z,29.30
2023-05-25T01:29:35.326Z,29.30
2023-05-25T01:32:05.214Z,29.30
2023-05-25T01:34:33.327Z,29.30
2023-05-25T01:37:02.448Z,29.30
2023-05-25T01:39:30.089Z,29.30
2023-05-25T01:41:57.777Z,29.30
2023-05-25T01:44:26.892Z,29.20
2023-05-25T01:47:01.275Z,29.20
2023-05-25T01:49:35.790Z,29.20
2023-05-25T01:52:16.761Z,29.20
2023-05-25T01:54:48.633Z,29.20
2023-05-25T01:57:19.495Z,29.20
2023-05-25T01:59:48.544Z,29.20
2023-05-25T02:02:18.667Z,29.20
2023-05-25T02:04:46.967Z,29.20
2023-05-25T02:07:16.154Z,29.20
2023-05-25T02:09:43.806Z,29.20
2023-05-25T02:12:11.562Z,29.20
2023-05-25T02:14:39.253Z,29.20
2023-05-25T02:17:07.485Z,29.20
2023-05-25T02:19:36.597Z,29.20
2023-05-25T02:22:04.377Z,29.20
2023-05-25T02:24:34.805Z,29.20
2023-05-25T02:27:03.472Z,29.20
2023-05-25T02:29:31.459Z,29.10
2023-05-25T02:31:59.773Z,29.10
2023-05-25T02:34:27.471Z,29.10
2023-05-25T02:36:55.161Z,29.10
2023-05-25T02:39:22.829Z,29.10
2023-05-25T02:41:51.848Z,29.10
2023-05-25T02:44:19.515Z,29.10
2023-05-25T02:46:47.265Z,29.10
2023-05-25T02:49:15.546Z,29.10
2023-05-25T02:51:43.205Z,29.10
2023-05-25T02:54:10.873Z,29.10
2023-05-25T02:56:38.510Z,29.10
2023-05-25T02:59:07.705Z,29.10
2023-05-25T03:01:36.181Z,29.10
2023-05-25T03:04:04.056Z,29.10
2023-05-25T03:06:31.798Z,29.10
2023-05-25T03:08:59.462Z,29.00
2023-05-25T03:11:27.166Z,29.10
2023-05-25T03:13:54.863Z,29.10
2023-05-25T03:16:24.197Z,29.00
2023-05-25T03:18:51.905Z,29.00
2023-05-25T03:21:19.603Z,29.00
2023-05-25T03:23:47.288Z,29.00
2023-05-25T03:26:15.131Z,29.00
2023-05-25T03:28:42.796Z,29.00
2023-05-25T03:31:10.875Z,29.00
2023-05-25T03:33:39.904Z,29.00
2023-05-25T03:36:09.015Z,29.00
2023-05-25T03:38:37.672Z,29.00
2023-05-25T03:41:05.445Z,29.00
2023-05-25T03:43:33.278Z,29.00
2023-05-25T03:46:00.992Z,29.00
2023-05-25T03:48:28.741Z,29.00
2023-05-25T03:50:57.775Z,29.00
2023-05-25T03:53:25.488Z,29.00
2023-05-25T03:55:53.270Z,29.00
2023-05-25T03:58:20.928Z,29.00
2023-05-25T04:00:50.384Z,28.90
2023-05-25T04:03:18.397Z,28.90
2023-05-25T04:05:46.799Z,28.90
2023-05-25T04:08:18.036Z,28.90
2023-05-25T04:10:46.126Z,28.90
2023-05-25T04:13:14.059Z,28.90
2023-05-25T04:15:41.818Z,28.90
2023-05-25T04:18:09.618Z,28.90
2023-05-25T04:20:37.470Z,28.90
2023-05-25T04:23:05.288Z,28.90
2023-05-25T04:25:34.332Z,28.90
2023-05-25T04:28:02.016Z,28.90
2023-05-25T04:30:31.494Z,28.90
2023-05-25T04:33:02.764Z,28.90
2023-05-25T04:35:31.631Z,28.90
2023-05-25T04:38:00.718Z,28.90
2023-05-25T04:40:28.400Z,28.90
2023-05-25T04:42:57.430Z,28.90
2023-05-25T04:45:25.106Z,28.90
2023-05-25T04:47:53.052Z,28.90
2023-05-25T04:50:21.022Z,28.90
2023-05-25T04:52:48.752Z,28.90
2023-05-25T04:55:16.849Z,28.90
2023-05-25T04:57:44.516Z,28.90
2023-05-25T05:00:15.312Z,28.90
2023-05-25T05:02:44.186Z,28.90
2023-05-25T05:05:11.985Z,28.90
2023-05-25T05:07:39.716Z,28.90
2023-05-25T05:10:08.389Z,28.90
2023-05-25T05:12:36.253Z,28.90
2023-05-25T05:15:04.043Z,28.90
2023-05-25T05:17:33.244Z,28.90
2023-05-25T05:20:01.076Z,28.90
2023-05-25T05:22:28.808Z,28.90
2023-05-25T05:24:56.499Z,28.90
2023-05-25T05:27:24.383Z,28.90
2023-05-25T05:29:52.265Z,28.90
2023-05-25T05:32:19.938Z,28.90
2023-05-25T05:34:49.250Z,28.90
2023-05-25T05:37:16.960Z,29.00
2023-05-25T05:39:44.611Z,29.00
2023-05-25T05:42:12.268Z,29.00
2023-05-25T05:44:39.985Z,29.00
2023-05-25T05:47:07.828Z,29.00
2023-05-25T05:49:35.629Z,29.00
2023-05-25T05:52:05.047Z,29.00
2023-05-25T05:54:32.723Z,29.00
2023-05-25T05:57:01.312Z,29.10
2023-05-25T05:59:29.012Z,29.10
2023-05-25T06:01:57.084Z,29.10
2023-05-25T06:04:26.045Z,29.10
2023-05-25T06:06:53.809Z,29.10
2023-05-25T06:09:24.585Z,29.20
2023-05-25T06:11:52.273Z,29.20
2023-05-25T06:14:19.917Z,29.20
2023-05-25T06:16:47.628Z,29.20
2023-05-25T06:19:15.303Z,29.20
2023-05-25T06:21:42.985Z,29.20
2023-05-25T06:24:10.689Z,29.20
2023-05-25T06:26:39.726Z,29.20
2023-05-25T06:29:07.453Z,29.20
2023-05-25T06:31:35.194Z,29.20
2023-05-25T06:34:02.911Z,29.20
2023-05-25T06:36:32.182Z,29.20
2023-05-25T06:38:59.945Z,29.20
2023-05-25T06:41:27.869Z,29.20
2023-05-25T06:43:56.900Z,29.20
2023-05-25T06:46:24.701Z,29.20
2023-05-25T06:48:52.405Z,29.20
2023-05-25T06:55:09.443Z,29.20
2023-05-25T06:57:37.085Z,29.20
2023-05-25T07:00:08.360Z,29.20
2023-05-25T07:02:36.068Z,29.20
2023-05-25T07:05:05.683Z,29.20
2023-05-25T07:07:33.891Z,29.20
2023-05-25T07:10:02.656Z,29.20
2023-05-25T07:12:30.292Z,29.20
2023-05-25T07:14:58.606Z,29.20
2023-05-25T07:17:28.622Z,29.30
2023-05-25T07:19:56.398Z,29.30
2023-05-25T07:22:24.117Z,29.30
2023-05-25T07:24:51.758Z,29.30
2023-05-25T07:27:19.808Z,29.30
2023-05-25T07:29:47.440Z,29.40
2023-05-25T07:32:15.065Z,29.40
2023-05-25T07:34:44.006Z,29.40
2023-05-25T07:37:11.667Z,29.40
2023-05-25T07:39:40.505Z,29.40
2023-05-25T07:42:08.414Z,29.50
2023-05-25T07:44:36.050Z,29.50
2023-05-25T07:47:03.756Z,29.50
2023-05-25T07:49:31.437Z,29.60
2023-05-25T07:52:00.456Z,29.60
2023-05-25T07:54:28.108Z,29.60
2023-05-25T07:56:55.972Z,29.60
2023-05-25T07:59:23.695Z,29.70
2023-05-25T08:01:51.397Z,29.70
2023-05-25T08:04:19.254Z,29.70
2023-05-25T08:06:46.938Z,29.70
2023-05-25T08:09:15.916Z,29.70
2023-05-25T08:11:45.139Z,29.80
2023-05-25T08:14:12.789Z,29.80
2023-05-25T08:16:40.711Z,29.80
2023-05-25T08:19:08.369Z,29.80
2023-05-25T08:21:37.603Z,29.80
2023-05-25T08:24:08.232Z,29.80
2023-05-25T08:26:52.977Z,29.80
2023-05-25T08:29:21.310Z,29.80
2023-05-25T08:31:49.779Z,29.90
2023-05-25T08:34:17.643Z,29.90
2023-05-25T08:36:45.770Z,29.90
2023-05-25T08:39:13.552Z,29.90
2023-05-25T08:41:45.810Z,29.90
2023-05-25T08:44:14.810Z,29.90
2023-05-25T08:46:42.691Z,29.90
2023-05-25T08:49:11.608Z,29.90
2023-05-25T08:51:44.530Z,30.00
2023-05-25T08:54:14.421Z,30.00
2023-05-25T08:56:51.219Z,30.00
2023-05-25T08:59:32.515Z,30.00
2023-05-25T09:02:22.338Z,30.00
2023-05-25T09:04:50.108Z,30.00
2023-05-25T09:07:17.871Z,30.00
2023-05-25T09:09:46.358Z,30.10
2023-05-25T09:12:16.506Z,30.10
2023-05-25T09:14:47.837Z,30.10
2023-05-25T09:17:16.209Z,30.10
2023-05-25T09:19:44.306Z,30.10
2023-05-25T09:22:16.490Z,30.10
2023-05-25T09:24:45.164Z,30.10
2023-05-25T09:27:18.306Z,30.10
2023-05-25T09:29:47.495Z,30.10
2023-05-25T09:32:15.480Z,30.10
2023-05-25T09:34:44.975Z,30.20
2023-05-25T09:37:14.241Z,30.20
2023-05-25T09:39:42.720Z,30.20
2023-05-25T09:42:10.560Z,30.20
2023-05-25T09:44:39.903Z,30.20
2023-05-25T09:47:07.988Z,30.20
2023-05-25T09:49:36.603Z,30.20
2023-05-25T09:52:04.330Z,30.20
2023-05-25T09:54:32.017Z,30.20
2023-05-25T09:57:01.510Z,30.20
2023-05-25T09:59:29.158Z,30.20
2023-05-25T10:01:59.203Z,30.20
2023-05-25T10:04:26.979Z,30.20
2023-05-25T10:06:56.745Z,30.10
2023-05-25T10:09:26.500Z,30.10
2023-05-25T10:11:55.969Z,30.10
2023-05-25T10:14:28.049Z,30.10
2023-05-25T10:17:00.556Z,30.10
2023-05-25T10:19:34.315Z,30.10
2023-05-25T10:22:07.900Z,30.10
2023-05-25T10:24:39.369Z,30.10
2023-05-25T10:27:25.639Z,30.10
2023-05-25T10:29:57.569Z,30.10
2023-05-25T10:32:28.032Z,30.10
2023-05-25T10:34:58.176Z,30.10
2023-05-25T10:37:28.117Z,30.10
2023-05-25T10:39:57.914Z,30.10
2023-05-25T10:42:27.271Z,30.10
2023-05-25T10:44:56.619Z,30.10
2023-05-25T10:47:26.656Z,30.10
2023-05-25T10:49:55.837Z,30.10
2023-05-25T10:52:28.063Z,30.10
2023-05-25T10:54:57.051Z,30.00
2023-05-25T10:57:25.980Z,30.10
2023-05-25T10:59:59.535Z,30.10
2023-05-25T11:02:30.353Z,30.10
2023-05-25T11:05:32.101Z,30.00
2023-05-25T11:08:01.285Z,30.00
2023-05-25T11:10:52.881Z,30.00
2023-05-25T11:13:33.719Z,30.00
2023-05-25T11:16:18.833Z,30.00
2023-05-25T11:18:52.817Z,30.00
2023-05-25T11:21:45.179Z,30.00
2023-05-25T11:24:14.936Z,30.00
2023-05-25T11:27:00.942Z,30.00
2023-05-25T11:29:32.471Z,30.00
2023-05-25T11:32:01.154Z,30.00
2023-05-25T11:34:32.039Z,30.00
2023-05-25T11:37:02.512Z,30.00
2023-05-25T11:39:31.036Z,30.00
2023-05-25T11:42:03.929Z,30.00
2023-05-25T11:44:33.573Z,30.00
2023-05-25T11:47:03.181Z,30.00
2023-05-25T11:49:32.324Z,30.00
2023-05-25T11:52:00.088Z,30.00
2023-05-25T11:54:29.304Z,30.00
2023-05-25T11:57:00.038Z,30.00
2023-05-25T11:59:30.587Z,29.90
2023-05-25T12:02:00.734Z,29.90
2023-05-25T12:04:29.003Z,30.00
2023-05-25T12:07:04.385Z,29.90
2023-05-25T12:09:32.226Z,29.90
2023-05-25T12:12:00.782Z,29.90
2023-05-25T12:14:28.482Z,29.90
2023-05-25T12:16:56.673Z,29.90
2023-05-25T12:19:24.636Z,29.90
2023-05-25T12:21:52.703Z,29.90
2023-05-25T12:24:21.771Z,29.90
2023-05-25T12:26:50.153Z,29.90
2023-05-25T12:29:18.246Z,29.90
2023-05-25T12:31:45.942Z,29.90
2023-05-25T12:34:15.187Z,29.90
2023-05-25T12:36:47.866Z,29.90
2023-05-25T12:39:17.967Z,29.90
2023-05-25T12:41:54.212Z,29.90
2023-05-25T12:44:25.506Z,29.90
2023-05-25T12:46:55.148Z,29.90
2023-05-25T12:49:25.156Z,29.90
2023-05-25T12:51:52.846Z,29.90
2023-05-25T12:54:42.321Z,29.90
2023-05-25T12:57:13.436Z,29.90
2023-05-25T12:59:43.868Z,29.90
2023-05-25T13:02:12.788Z,29.90
2023-05-25T13:04:41.539Z,29.90
2023-05-25T13:07:09.960Z,29.90
2023-05-25T13:09:38.148Z,29.90
2023-05-25T13:12:06.427Z,29.90
2023-05-25T13:14:36.066Z,29.90
2023-05-25T13:17:03.812Z,29.80
2023-05-25T13:19:31.583Z,29.90
2023-05-25T13:21:59.274Z,29.90
2023-05-25T13:24:26.940Z,29.80
2023-05-25T13:26:54.976Z,29.80
2023-05-25T13:29:23.949Z,29.80
2023-05-25T13:31:53.075Z,29.80
2023-05-25T13:34:20.773Z,29.80
2023-05-25T13:36:48.763Z,29.80
2023-05-25T13:39:16.448Z,29.80
2023-05-25T13:41:44.106Z,29.80
2023-05-25T13:44:13.659Z,29.80
2023-05-25T13:46:42.881Z,29.80
2023-05-25T13:49:13.788Z,29.80
2023-05-25T13:51:41.517Z,29.80
2023-05-25T13:54:09.179Z,29.80
2023-05-25T13:56:36.874Z,29.80
2023-05-25T13:59:04.660Z,29.80
2023-05-25T14:01:33.117Z,29.80
2023-05-25T14:04:01.184Z,29.80
2023-05-25T14:06:30.639Z,29.80
2023-05-25T14:08:58.649Z,29.80
2023-05-25T14:11:28.368Z,29.80
2023-05-25T14:13:56.618Z,29.80
2023-05-25T14:16:24.441Z,29.80
2023-05-25T14:18:52.915Z,29.80
2023-05-25T14:21:20.709Z,29.80
2023-05-25T14:23:49.701Z,29.80
2023-05-25T14:26:17.322Z,29.80
2023-05-25T14:28:45.022Z,29.80
2023-05-25T14:31:13.016Z,29.80
2023-05-25T14:33:42.826Z,29.80
2023-05-25T14:36:10.816Z,29.80
2023-05-25T14:38:38.560Z,29.80
2023-05-25T14:41:07.651Z,29.80
2023-05-25T14:43:35.706Z,29.80
2023-05-25T14:46:03.435Z,29.80
2023-05-25T14:48:31.309Z,29.80
2023-05-25T14:51:00.182Z,29.80
2023-05-25T14:53:27.905Z,29.80
2023-05-25T14:55:55.593Z,29.80
2023-05-25T14:58:24.702Z,29.80
2023-05-25T15:00:52.368Z,29.80
2023-05-25T15:03:20.336Z,29.80
2023-05-25T15:05:48.115Z,29.80
2023-05-25T15:08:15.845Z,29.80
2023-05-25T15:10:43.536Z,29.80
2023-05-25T15:13:13.174Z,29.80
2023-05-25T15:15:42.854Z,29.80
2023-05-25T15:18:10.766Z,29.80
2023-05-25T15:20:38.509Z,29.80
2023-05-25T15:23:06.633Z,29.80
2023-05-25T15:25:35.731Z,29.80
2023-05-25T15:28:03.874Z,29.80
2023-05-25T15:30:33.237Z,29.80
2023-05-25T15:33:02.369Z,29.80
2023-05-25T15:35:32.413Z,29.80
2023-05-25T15:38:01.421Z,29.80
2023-05-25T15:40:29.371Z,29.80
2023-05-25T15:42:57.192Z,29.80
2023-05-25T15:45:26.293Z,29.80
2023-05-25T15:47:54.068Z,29.80
2023-05-25T15:50:23.136Z,29.80
2023-05-25T15:52:50.938Z,29.80
2023-05-25T15:55:18.684Z,29.80
2023-05-25T15:57:46.371Z,29.80
2023-05-25T16:00:15.464Z,29.80
2023-05-25T16:02:43.229Z,29.80
2023-05-25T16:05:11.049Z,29.70
2023-05-25T16:07:40.049Z,29.80
2023-05-25T16:10:08.665Z,29.80
2023-05-25T16:12:36.322Z,29.80
2023-05-25T16:15:04.179Z,29.80
2023-05-25T16:17:31.900Z,29.80
2023-05-25T16:19:59.585Z,29.80
2023-05-25T16:22:27.285Z,29.70
2023-05-25T16:24:56.508Z,29.80
2023-05-25T16:27:24.317Z,29.80
2023-05-25T16:29:52.114Z,29.80
2023-05-25T16:32:19.780Z,29.80
2023-05-25T16:34:47.417Z,29.80
2023-05-25T16:37:15.773Z,29.80
2023-05-25T16:39:43.436Z,29.80
2023-05-25T16:42:12.487Z,29.80
2023-05-25T16:44:40.132Z,29.80
2023-05-25T16:47:07.887Z,29.80
2023-05-25T16:49:35.561Z,29.70
2023-05-25T16:52:03.521Z,29.80
2023-05-25T16:54:31.277Z,29.80
2023-05-25T16:56:58.985Z,29.80
2023-05-25T16:59:28.022Z,29.80
2023-05-25T17:01:55.910Z,29.80
2023-05-25T17:04:23.774Z,29.80
2023-05-25T17:06:51.497Z,29.80
2023-05-25T17:09:19.291Z,29.80
2023-05-25T17:11:47.043Z,29.80
2023-05-25T17:14:14.804Z,29.80
2023-05-25T17:16:43.935Z,29.80
2023-05-25T17:19:14.831Z,29.80
2023-05-25T17:21:42.518Z,29.80
2023-05-25T17:24:10.718Z,29.80
2023-05-25T17:26:38.403Z,29.80
2023-05-25T17:29:06.219Z,29.80
2023-05-25T17:31:34.083Z,29.80
2023-05-25T17:34:03.231Z,29.80
2023-05-25T17:36:30.913Z,29.80
2023-05-25T17:38:58.645Z,29.80
2023-05-25T17:41:26.411Z,29.80
2023-05-25T17:43:54.128Z,29.80
2023-05-25T17:46:21.837Z,29.80
2023-05-25T17:48:49.609Z,29.80
2023-05-25T17:51:18.947Z,29.80
2023-05-25T17:53:46.767Z,29.80
2023-05-25T17:56:14.433Z,29.80
2023-05-25T17:58:47.168Z,29.80
2023-05-25T18:01:15.300Z,29.80
2023-05-25T18:03:43.347Z,29.80
2023-05-25T18:06:11.312Z,29.80
2023-05-25T18:08:40.372Z,29.80
2023-05-25T18:11:08.132Z,29.80
2023-05-25T18:13:35.784Z,29.80
2023-05-25T18:16:03.463Z,29.80
2023-05-25T18:18:31.314Z,29.80
2023-05-25T18:20:59.410Z,29.80
2023-05-25T18:23:27.180Z,29.80
2023-05-25T18:25:56.250Z,29.80
2023-05-25T18:28:23.901Z,29.80
2023-05-25T18:30:51.640Z,29.80
2023-05-25T18:33:19.387Z,29.80
2023-05-25T18:35:47.187Z,29.80
2023-05-25T18:38:14.922Z,29.80
2023-05-25T18:40:42.732Z,29.80
2023-05-25T18:43:11.788Z,29.80
2023-05-25T18:45:39.491Z,29.80
2023-05-25T18:48:08.215Z,29.80
2023-05-25T18:50:37.509Z,29.80
2023-05-25T18:53:07.673Z,29.80
2023-05-25T18:55:36.096Z,29.80
2023-05-25T18:58:03.861Z,29.80
2023-05-25T19:00:32.896Z,29.80
2023-05-25T19:03:00.795Z,29.80
2023-05-25T19:05:28.551Z,29.80
2023-05-25T19:07:59.470Z,29.80
2023-05-25T19:10:27.931Z,29.80
2023-05-25T19:12:55.766Z,29.80
2023-05-25T19:15:23.759Z,29.80
2023-05-25T19:17:52.897Z,29.80
2023-05-25T19:20:20.800Z,29.80
2023-05-25T19:22:48.528Z,29.80
2023-05-25T19:25:16.958Z,29.80
2023-05-25T19:27:44.658Z,29.80
2023-05-25T19:30:12.794Z,29.80
2023-05-25T19:32:40.546Z,29.80
2023-05-25T19:35:10.133Z,29.80
2023-05-25T19:37:40.759Z,29.80
2023-05-25T19:40:10.948Z,29.80
2023-05-25T19:42:38.679Z,29.80
2023-05-25T19:45:07.183Z,29.80
2023-05-25T19:47:34.946Z,29.80
2023-05-25T19:50:03.090Z,29.80
2023-05-25T19:52:32.200Z,29.80
2023-05-25T19:54:59.855Z,29.80
2023-05-25T19:57:27.521Z,29.80
2023-05-25T19:59:55.288Z,29.80
2023-05-25T20:02:23.061Z,29.80
2023-05-25T20:04:50.844Z,29.80
2023-05-25T20:07:18.805Z,29.80
2023-05-25T20:09:47.844Z,29.80
2023-05-25T20:12:16.345Z,29.80
2023-05-25T20:14:44.482Z,29.80
2023-05-25T20:17:12.143Z,29.80
2023-05-25T20:19:39.882Z,29.80
2023-05-25T20:22:08.330Z,29.80
2023-05-25T20:24:36.061Z,29.80
2023-05-25T20:27:06.558Z,29.80
2023-05-25T20:29:34.592Z,29.80
2023-05-25T20:32:02.301Z,29.80
2023-05-25T20:34:30.063Z,29.80
2023-05-25T20:36:57.760Z,29.70
2023-05-25T20:39:25.472Z,29.80
2023-05-25T20:41:53.164Z,29.80
2023-05-25T20:44:22.278Z,29.80
2023-05-25T20:46:49.968Z,29.80
2023-05-25T20:49:17.673Z,29.80
2023-05-25T20:51:49.942Z,29.80
2023-05-25T20:54:17.908Z,29.80
2023-05-25T20:56:47.552Z,29.80
2023-05-25T20:59:15.304Z,29.80
2023-05-25T21:01:45.628Z,29.80
2023-05-25T21:04:13.556Z,29.80
2023-05-25T21:06:41.370Z,29.80
2023-05-25T21:09:09.183Z,29.80
2023-05-25T21:11:37.174Z,29.80
2023-05-25T21:14:04.862Z,29.80
2023-05-25T21:16:32.713Z,29.80
2023-05-25T21:19:02.136Z,29.80
2023-05-25T21:21:34.027Z,29.70
2023-05-25T21:24:02.240Z,29.70
2023-05-25T21:26:30.497Z,29.70
2023-05-25T21:28:58.814Z,29.80
2023-05-25T21:31:27.917Z,29.80
2023-05-25T21:33:55.802Z,29.70
2023-05-25T21:36:25.578Z,29.70
2023-05-25T21:38:53.325Z,29.80
2023-05-25T21:41:21.773Z,29.70
2023-05-25T21:43:49.806Z,29.70
2023-05-25T21:46:17.910Z,29.80
2023-05-25T21:48:45.881Z,29.70
2023-05-25T21:51:13.668Z,29.80
2023-05-25T21:53:43.236Z,29.70
2023-05-25T21:56:11.145Z,29.70
2023-05-25T21:58:39.068Z,29.70
2023-05-25T22:01:07.000Z,29.80
2023-05-25T22:03:35.031Z,29.80
2023-05-25T22:06:02.874Z,29.70
2023-05-25T22:08:30.666Z,29.80
2023-05-25T22:10:59.819Z,29.80
2023-05-25T22:13:27.829Z,29.80
2023-05-25T22:15:55.748Z,29.70
2023-05-25T22:18:23.459Z,29.80
2023-05-25T22:20:51.235Z,29.80
2023-05-25T22:23:19.064Z,29.80
2023-05-25T22:25:47.054Z,29.80
2023-05-25T22:28:16.457Z,29.80
2023-05-25T22:30:44.283Z,29.80
2023-05-25T22:33:12.080Z,29.70
2023-05-25T22:35:39.772Z,29.80
2023-05-25T22:38:07.444Z,29.80
2023-05-25T22:40:35.216Z,29.80
2023-05-25T22:43:02.913Z,29.80
2023-05-25T22:45:31.972Z,29.80
2023-05-25T22:47:59.685Z,29.80
2023-05-25T22:50:27.417Z,29.80
2023-05-25T22:52:55.061Z,29.80
2023-05-25T22:55:22.959Z,29.80
2023-05-25T22:57:50.660Z,29.80
2023-05-25T23:00:18.839Z,29.80
2023-05-25T23:02:47.972Z,29.80
2023-05-25T23:05:15.781Z,29.80
2023-05-25T23:07:44.843Z,29.80
2023-05-25T23:10:12.624Z,29.80
2023-05-25T23:12:40.493Z,29.70
2023-05-25T23:15:09.534Z,29.70
2023-05-25T23:17:37.412Z,29.80
2023-05-25T23:20:08.929Z,29.70
2023-05-25T23:22:36.680Z,29.80
2023-05-25T23:25:04.461Z,29.70
2023-05-25T23:27:32.765Z,29.70
2023-05-25T23:30:02.066Z,29.70
2023-05-25T23:32:29.848Z,29.70
2023-05-25T23:34:57.615Z,29.70
2023-05-25T23:37:26.863Z,29.70
2023-05-25T23:39:54.542Z,29.70
2023-05-25T23:42:22.222Z,29.70
2023-05-25T23:44:49.901Z,29.70
2023-05-25T23:47:17.612Z,29.70
2023-05-25T23:49:45.308Z,29.70
2023-05-25T23:52:13.018Z,29.70
2023-05-25T23:54:42.065Z,29.70
2023-05-25T23:57:09.800Z,29.70
2023-05-25T23:59:37.501Z,29.70
